createdAt,value
2023-05-10T00:01:26.131Z,5.38
2023-05-10T00:03:54.261Z,5.00
2023-05-10T00:06:22.454Z,4.83
2023-05-10T00:08:50.574Z,5.53
2023-05-10T00:11:19.617Z,5.53
2023-05-10T00:16:18.211Z,5.43
2023-05-10T00:18:46.190Z,4.83
2023-05-10T00:21:14.246Z,6.10
2023-05-10T00:23:42.460Z,5.33
2023-05-10T00:26:10.424Z,5.33
2023-05-10T00:28:38.511Z,5.30
2023-05-10T00:31:06.609Z,5.53
2023-05-10T00:33:35.915Z,5.27
2023-05-10T00:36:03.952Z,5.40
2023-05-10T00:38:32.066Z,5.63
2023-05-10T00:41:00.195Z,5.73
2023-05-10T00:43:28.272Z,5.33
2023-05-10T00:45:56.859Z,5.00
2023-05-10T00:48:25.200Z,5.70
2023-05-10T00:50:54.709Z,5.40
2023-05-10T00:53:23.111Z,5.57
2023-05-10T00:55:52.030Z,5.60
2023-05-10T00:58:20.300Z,5.10
2023-05-10T01:00:49.435Z,5.27
2023-05-10T01:03:18.263Z,5.10
2023-05-10T01:05:46.328Z,5.00
2023-05-10T01:08:15.983Z,4.63
2023-05-10T01:10:45.101Z,5.70
2023-05-10T01:13:14.425Z,5.33
2023-05-10T01:15:43.065Z,4.97
2023-05-10T01:18:11.570Z,5.50
2023-05-10T01:20:49.977Z,5.63
2023-05-10T01:23:45.913Z,5.03
2023-05-10T01:26:31.538Z,5.20
2023-05-10T01:29:20.970Z,5.20
2023-05-10T01:32:22.853Z,4.40
2023-05-10T01:35:01.644Z,5.27
2023-05-10T01:37:38.869Z,5.23
2023-05-10T01:40:15.649Z,4.70
2023-05-10T01:42:52.281Z,4.73
2023-05-10T01:45:27.314Z,4.50
2023-05-10T01:48:04.544Z,5.20
2023-05-10T01:50:34.484Z,4.83
2023-05-10T01:53:04.562Z,5.10
2023-05-10T01:55:36.937Z,4.95
2023-05-10T01:58:08.927Z,4.90
2023-05-10T02:00:38.793Z,4.53
2023-05-10T02:03:10.820Z,5.32
2023-05-10T02:05:39.739Z,4.87
2023-05-10T02:08:09.000Z,5.67
2023-05-10T02:10:37.764Z,5.20
2023-05-10T02:13:08.269Z,4.93
2023-05-10T02:15:38.136Z,5.40
2023-05-10T02:18:07.808Z,4.90
2023-05-10T02:20:37.411Z,5.40
2023-05-10T02:23:06.623Z,5.93
2023-05-10T02:25:35.573Z,5.47
2023-05-10T02:28:05.923Z,5.17
2023-05-10T02:30:35.899Z,4.95
2023-05-10T02:33:06.269Z,5.38
2023-05-10T02:38:04.913Z,5.80
2023-05-10T02:40:34.710Z,5.68
2023-05-10T02:43:04.805Z,5.25
2023-05-10T02:45:34.390Z,4.85
2023-05-10T02:48:02.723Z,4.97
2023-05-10T02:50:32.844Z,5.07
2023-05-10T02:53:08.716Z,5.70
2023-05-10T02:55:42.709Z,5.87
2023-05-10T02:58:11.155Z,5.53
2023-05-10T03:00:39.219Z,5.80
2023-05-10T03:03:07.978Z,5.50
2023-05-10T03:05:36.098Z,5.47
2023-05-10T03:08:07.170Z,5.50
2023-05-10T03:10:39.588Z,5.87
2023-05-10T03:13:15.126Z,5.20
2023-05-10T03:15:52.956Z,5.57
2023-05-10T03:18:25.343Z,5.27
2023-05-10T03:20:59.924Z,6.30
2023-05-10T03:23:36.303Z,5.20
2023-05-10T03:26:06.913Z,5.53
2023-05-10T03:28:36.330Z,5.50
2023-05-10T03:31:06.605Z,6.37
2023-05-10T03:33:34.695Z,4.80
2023-05-10T03:36:02.648Z,4.70
2023-05-10T03:38:32.055Z,5.30
2023-05-10T03:41:00.151Z,4.93
2023-05-10T03:43:29.794Z,4.60
2023-05-10T03:45:57.808Z,5.10
2023-05-10T03:48:26.051Z,5.10
2023-05-10T03:50:53.915Z,4.30
2023-05-10T03:53:22.096Z,5.00
2023-05-10T03:55:54.463Z,4.90
2023-05-10T03:58:22.969Z,5.60
2023-05-10T04:00:50.960Z,4.67
2023-05-10T04:03:22.169Z,4.43
2023-05-10T04:05:50.461Z,4.70
2023-05-10T04:08:18.468Z,4.63
2023-05-10T04:10:46.481Z,4.60
2023-05-10T04:13:16.153Z,4.27
2023-05-10T04:15:44.739Z,4.00
2023-05-10T04:18:13.117Z,4.40
2023-05-10T04:20:41.125Z,4.60
2023-05-10T04:23:09.043Z,4.37
2023-05-10T04:25:38.338Z,4.43
2023-05-10T04:28:06.530Z,4.60
2023-05-10T04:30:35.917Z,4.30
2023-05-10T04:33:04.053Z,4.73
2023-05-10T04:35:32.057Z,4.30
2023-05-10T04:37:59.967Z,4.53
2023-05-10T04:40:28.365Z,3.90
2023-05-10T04:42:56.462Z,4.30
2023-05-10T04:45:24.556Z,3.93
2023-05-10T04:47:54.164Z,4.40
2023-05-10T04:50:22.104Z,4.20
2023-05-10T04:52:50.093Z,4.20
2023-05-10T04:55:18.414Z,4.10
2023-05-10T04:57:46.656Z,3.63
2023-05-10T05:00:15.777Z,3.70
2023-05-10T05:02:48.382Z,4.00
2023-05-10T05:05:18.013Z,3.90
2023-05-10T05:07:47.883Z,3.58
2023-05-10T05:10:16.497Z,3.75
2023-05-10T05:12:44.760Z,3.70
2023-05-10T05:15:13.292Z,3.77
2023-05-10T05:17:41.384Z,3.80
2023-05-10T05:20:10.344Z,3.37
2023-05-10T05:22:39.945Z,3.30
2023-05-10T05:25:08.875Z,3.58
2023-05-10T05:27:36.861Z,3.20
2023-05-10T05:30:05.465Z,3.80
2023-05-10T05:32:36.536Z,3.33
2023-05-10T05:35:04.828Z,3.50
2023-05-10T05:37:32.785Z,3.60
2023-05-10T05:40:03.116Z,3.40
2023-05-10T05:44:58.877Z,3.20
2023-05-10T05:47:27.089Z,3.20
2023-05-10T05:49:55.165Z,3.40
2023-05-10T05:52:23.362Z,3.53
2023-05-10T05:54:51.360Z,3.30
2023-05-10T05:57:20.750Z,3.40
2023-05-10T05:59:49.382Z,3.10
2023-05-10T06:02:17.675Z,3.20
2023-05-10T06:04:45.640Z,3.33
2023-05-10T06:07:13.683Z,3.07
2023-05-10T06:09:41.739Z,3.43
2023-05-10T06:12:09.664Z,3.20
2023-05-10T06:14:39.013Z,3.10
2023-05-10T06:17:10.826Z,3.17
2023-05-10T06:19:38.938Z,3.27
2023-05-10T06:22:06.911Z,3.00
2023-05-10T06:24:34.956Z,3.20
2023-05-10T06:27:03.285Z,3.47
2023-05-10T06:29:31.253Z,3.83
2023-05-10T06:32:00.886Z,3.40
2023-05-10T06:34:29.064Z,3.90
2023-05-10T06:36:57.011Z,3.63
2023-05-10T06:39:25.171Z,3.45
2023-05-10T06:41:53.379Z,3.60
2023-05-10T06:44:21.263Z,3.63
2023-05-10T06:46:49.483Z,3.55
2023-05-10T06:49:19.170Z,3.13
2023-05-10T06:51:47.283Z,3.00
2023-05-10T06:54:15.447Z,3.10
2023-05-10T06:56:43.679Z,3.03
2023-05-10T06:59:11.753Z,3.20
2023-05-10T07:01:39.852Z,3.05
2023-05-10T07:04:08.815Z,2.90
2023-05-10T07:06:38.191Z,3.03
2023-05-10T07:09:06.281Z,3.27
2023-05-10T07:11:34.394Z,3.10
2023-05-10T07:14:02.381Z,3.20
2023-05-10T07:16:30.370Z,3.08
2023-05-10T07:18:58.384Z,2.88
2023-05-10T07:21:29.608Z,3.22
2023-05-10T07:23:59.358Z,3.20
2023-05-10T07:26:27.242Z,3.28
2023-05-10T07:28:55.186Z,3.00
2023-05-10T07:31:23.348Z,3.25
2023-05-10T07:33:51.357Z,2.72
2023-05-10T07:36:19.349Z,3.10
2023-05-10T07:38:47.481Z,3.08
2023-05-10T07:41:16.872Z,2.72
2023-05-10T07:43:44.896Z,2.97
2023-05-10T07:46:13.073Z,2.83
2023-05-10T07:48:41.124Z,3.28
2023-05-10T07:51:10.446Z,3.10
2023-05-10T07:53:39.399Z,3.47
2023-05-10T07:59:04.982Z,2.92
2023-05-10T08:01:33.746Z,3.03
2023-05-10T08:04:02.958Z,2.92
2023-05-10T08:06:31.483Z,2.90
2023-05-10T08:08:59.496Z,3.15
2023-05-10T08:11:28.732Z,2.83
2023-05-10T08:13:56.872Z,2.97
2023-05-10T08:16:26.160Z,3.20
2023-05-10T08:18:56.365Z,3.20
2023-05-10T08:21:24.667Z,3.20
2023-05-10T08:23:52.618Z,2.92
2023-05-10T08:26:22.020Z,2.85
2023-05-10T08:28:50.157Z,2.75
2023-05-10T08:31:19.070Z,3.00
2023-05-10T08:33:48.545Z,2.67
2023-05-10T08:36:20.854Z,3.45
2023-05-10T08:38:50.241Z,3.30
2023-05-10T08:41:19.352Z,2.90
2023-05-10T08:43:48.197Z,3.00
2023-05-10T08:46:19.413Z,2.58
2023-05-10T08:48:49.895Z,2.75
2023-05-10T08:51:20.894Z,2.67
2023-05-10T08:53:49.694Z,2.67
2023-05-10T08:56:18.919Z,3.00
2023-05-10T08:58:47.060Z,3.33
2023-05-10T09:01:17.292Z,3.08
2023-05-10T09:06:15.305Z,3.05
2023-05-10T09:08:44.265Z,2.80
2023-05-10T09:11:13.221Z,3.05
2023-05-10T09:13:43.999Z,2.70
2023-05-10T09:16:21.325Z,3.05
2023-05-10T09:18:50.749Z,2.50
2023-05-10T09:21:21.684Z,2.70
2023-05-10T09:23:51.271Z,2.58
2023-05-10T09:26:19.419Z,2.75
2023-05-10T09:28:54.610Z,2.88
2023-05-10T09:31:22.857Z,2.83
2023-05-10T09:33:52.165Z,2.40
2023-05-10T09:36:21.777Z,2.80
2023-05-10T09:38:52.748Z,2.78
2023-05-10T09:41:22.273Z,2.97
2023-05-10T09:43:50.588Z,2.90
2023-05-10T09:46:18.900Z,2.60
2023-05-10T09:48:48.740Z,2.78
2023-05-10T09:51:25.370Z,3.08
2023-05-10T09:54:12.128Z,2.63
2023-05-10T09:56:41.666Z,2.28
2023-05-10T09:59:11.695Z,2.65
2023-05-10T10:01:40.268Z,2.90
2023-05-10T10:04:09.678Z,2.53
2023-05-10T10:06:40.066Z,2.72
2023-05-10T10:09:08.882Z,2.60
2023-05-10T10:11:38.358Z,2.20
2023-05-10T10:14:06.859Z,2.80
2023-05-10T10:16:39.948Z,2.53
2023-05-10T10:19:14.570Z,2.20
2023-05-10T10:21:44.137Z,2.80
2023-05-10T10:24:11.982Z,2.75
2023-05-10T10:26:42.673Z,2.60
2023-05-10T10:29:20.922Z,2.55
2023-05-10T10:31:56.778Z,2.75
2023-05-10T10:34:29.430Z,2.78
2023-05-10T10:36:59.993Z,2.40
2023-05-10T10:39:29.259Z,2.90
2023-05-10T10:41:58.553Z,2.77
2023-05-10T10:44:28.579Z,2.40
2023-05-10T10:47:07.035Z,2.45
2023-05-10T10:49:39.524Z,2.85
2023-05-10T10:52:23.928Z,2.55
2023-05-10T10:54:59.884Z,2.70
2023-05-10T10:57:28.840Z,2.42
2023-05-10T11:00:22.121Z,2.88
2023-05-10T11:02:54.828Z,2.65
2023-05-10T11:05:27.807Z,2.75
2023-05-10T11:07:58.342Z,2.40
2023-05-10T11:10:27.561Z,2.53
2023-05-10T11:13:01.983Z,2.53
2023-05-10T11:15:34.166Z,2.72
2023-05-10T11:18:18.262Z,2.65
2023-05-10T11:20:47.789Z,2.50
2023-05-10T11:23:18.945Z,2.35
2023-05-10T11:25:48.265Z,2.42
2023-05-10T11:28:16.891Z,2.40
2023-05-10T11:30:46.691Z,2.67
2023-05-10T11:33:19.225Z,2.65
2023-05-10T11:35:47.219Z,2.38
2023-05-10T11:38:16.494Z,2.67
2023-05-10T11:40:44.829Z,2.70
2023-05-10T11:43:13.429Z,2.58
2023-05-10T11:45:43.505Z,2.58
2023-05-10T11:48:11.866Z,2.60
2023-05-10T11:50:39.920Z,2.78
2023-05-10T11:53:07.954Z,2.60
2023-05-10T11:55:37.695Z,2.70
2023-05-10T11:58:06.046Z,3.20
2023-05-10T12:00:34.403Z,2.53
2023-05-10T12:03:04.284Z,2.50
2023-05-10T12:05:35.153Z,2.60
2023-05-10T12:08:16.812Z,2.67
2023-05-10T12:10:46.205Z,2.75
2023-05-10T12:13:16.179Z,2.35
2023-05-10T12:15:45.355Z,2.88
2023-05-10T12:18:14.652Z,2.50
2023-05-10T12:20:43.566Z,2.50
2023-05-10T12:23:12.295Z,2.63
2023-05-10T12:25:41.098Z,2.67
2023-05-10T12:28:11.703Z,2.85
2023-05-10T12:30:40.430Z,2.60
2023-05-10T12:33:14.370Z,2.67
2023-05-10T12:35:51.237Z,2.60
2023-05-10T12:38:27.992Z,2.83
2023-05-10T12:40:56.075Z,2.67
2023-05-10T12:43:25.540Z,2.25
2023-05-10T12:45:53.699Z,2.30
2023-05-10T12:48:22.012Z,2.28
2023-05-10T12:50:50.170Z,2.80
2023-05-10T12:53:18.934Z,2.47
2023-05-10T12:55:46.913Z,2.47
2023-05-10T12:58:31.510Z,2.50
2023-05-10T13:01:05.279Z,2.35
2023-05-10T13:03:33.515Z,2.00
2023-05-10T13:06:01.534Z,2.28
2023-05-10T13:08:34.331Z,2.55
2023-05-10T13:11:02.829Z,2.75
2023-05-10T13:13:30.839Z,2.38
2023-05-10T13:15:58.849Z,2.05
2023-05-10T13:18:28.507Z,2.75
2023-05-10T13:20:56.778Z,2.20
2023-05-10T13:23:24.844Z,2.50
2023-05-10T13:25:53.123Z,2.22
2023-05-10T13:28:21.123Z,2.60
2023-05-10T13:30:49.108Z,2.47
2023-05-10T13:33:17.166Z,2.08
2023-05-10T13:35:46.632Z,2.22
2023-05-10T13:38:14.938Z,2.20
2023-05-10T13:40:43.030Z,2.08
2023-05-10T13:43:11.215Z,2.30
2023-05-10T13:45:40.143Z,2.28
2023-05-10T13:48:08.285Z,2.38
2023-05-10T13:50:36.272Z,2.47
2023-05-10T13:53:06.530Z,2.22
2023-05-10T13:58:02.646Z,2.47
2023-05-10T14:00:30.767Z,1.98
2023-05-10T14:02:58.931Z,2.13
2023-05-10T14:05:27.020Z,2.17
2023-05-10T14:07:55.306Z,2.13
2023-05-10T14:10:24.700Z,2.35
2023-05-10T14:12:52.826Z,2.00
2023-05-10T14:15:20.935Z,2.08
2023-05-10T14:17:48.984Z,2.33
2023-05-10T14:20:17.198Z,2.40
2023-05-10T14:22:45.196Z,2.28
2023-05-10T14:25:13.744Z,2.30
2023-05-10T14:27:43.125Z,2.05
2023-05-10T14:30:12.094Z,2.28
2023-05-10T14:32:40.337Z,2.33
2023-05-10T14:35:10.831Z,2.35
2023-05-10T14:37:40.954Z,2.10
2023-05-10T14:40:10.355Z,2.55
2023-05-10T14:42:38.373Z,2.35
2023-05-10T14:45:09.551Z,2.10
2023-05-10T14:47:37.505Z,2.20
2023-05-10T14:50:06.121Z,2.00
2023-05-10T14:52:34.542Z,1.98
2023-05-10T14:55:02.548Z,2.22
2023-05-10T14:57:30.796Z,1.88
2023-05-10T14:59:58.989Z,2.30
2023-05-10T15:02:28.659Z,1.90
2023-05-10T15:04:58.427Z,2.00
2023-05-10T15:07:27.105Z,2.40
2023-05-10T15:09:55.184Z,2.20
2023-05-10T15:12:23.077Z,2.30
2023-05-10T15:14:51.173Z,2.08
2023-05-10T15:17:19.160Z,2.05
2023-05-10T15:19:50.167Z,2.28
2023-05-10T15:22:18.376Z,1.98
2023-05-10T15:24:46.311Z,1.80
2023-05-10T15:27:14.381Z,2.15
2023-05-10T15:29:42.643Z,1.83
2023-05-10T15:32:10.585Z,1.90
2023-05-10T15:34:38.541Z,1.90
2023-05-10T15:37:08.144Z,2.03
2023-05-10T15:39:36.350Z,2.20
2023-05-10T15:42:04.962Z,1.52
2023-05-10T15:44:32.918Z,1.70
2023-05-10T15:47:00.936Z,1.85
2023-05-10T15:49:28.936Z,2.10
2023-05-10T15:51:56.969Z,1.80
2023-05-10T15:54:26.553Z,2.05
2023-05-10T15:56:55.281Z,1.80
2023-05-10T15:59:23.352Z,1.77
2023-05-10T16:01:52.008Z,2.00
2023-05-10T16:04:20.076Z,1.90
2023-05-10T16:06:48.161Z,1.83
2023-05-10T16:09:16.804Z,1.90
2023-05-10T16:11:46.397Z,2.08
2023-05-10T16:14:14.544Z,2.30
2023-05-10T16:16:43.305Z,2.10
2023-05-10T16:19:11.367Z,1.98
2023-05-10T16:21:39.439Z,1.92
2023-05-10T16:24:07.768Z,1.92
2023-05-10T16:26:40.989Z,1.90
2023-05-10T16:29:10.692Z,2.30
2023-05-10T16:31:38.612Z,2.10
2023-05-10T16:34:06.550Z,1.92
2023-05-10T16:36:35.308Z,1.80
2023-05-10T16:39:03.982Z,1.80
2023-05-10T16:41:35.185Z,1.85
2023-05-10T16:44:03.711Z,1.65
2023-05-10T16:46:33.255Z,1.75
2023-05-10T16:49:01.349Z,1.90
2023-05-10T16:51:29.528Z,2.17
2023-05-10T16:53:57.476Z,1.77
2023-05-10T16:56:27.521Z,1.90
2023-05-10T16:58:55.605Z,1.85
2023-05-10T17:01:26.278Z,2.20
2023-05-10T17:03:56.558Z,2.00
2023-05-10T17:06:24.585Z,2.10
2023-05-10T17:08:52.642Z,1.90
2023-05-10T17:11:21.966Z,1.85
2023-05-10T17:13:49.917Z,1.90
2023-05-10T17:16:17.968Z,1.90
2023-05-10T17:18:46.644Z,2.00
2023-05-10T17:21:16.455Z,1.67
2023-05-10T17:23:44.415Z,1.92
2023-05-10T17:26:13.076Z,1.95
2023-05-10T17:28:40.947Z,1.80
2023-05-10T17:31:08.981Z,2.00
2023-05-10T18:13:46.418Z,1.90
2023-05-10T18:16:14.583Z,1.88
2023-05-10T18:18:42.568Z,2.03
2023-05-10T18:21:11.187Z,1.83
2023-05-10T18:23:39.212Z,2.10
2023-05-10T18:26:08.731Z,1.80
2023-05-10T18:28:39.769Z,1.80
2023-05-10T18:31:12.631Z,1.90
2023-05-10T18:33:41.623Z,1.60
2023-05-10T18:36:09.696Z,2.30
2023-05-10T18:38:38.719Z,1.90
2023-05-10T18:41:07.449Z,1.90
2023-05-10T18:43:35.340Z,1.90
2023-05-10T18:46:03.343Z,1.93
2023-05-10T18:48:32.712Z,1.73
2023-05-10T18:51:00.892Z,2.10
2023-05-10T18:53:28.883Z,2.00
2023-05-10T18:55:58.249Z,2.03
2023-05-10T18:58:26.324Z,2.38
2023-05-10T19:00:55.966Z,1.93
2023-05-10T19:03:24.176Z,1.77
2023-05-10T19:05:53.469Z,2.20
2023-05-10T19:08:24.652Z,1.90
2023-05-10T19:10:52.689Z,2.00
2023-05-10T19:13:22.424Z,1.70
2023-05-10T19:16:03.022Z,2.10
2023-05-10T19:18:33.273Z,2.20
2023-05-10T19:21:04.792Z,2.10
2023-05-10T19:23:33.724Z,2.27
2023-05-10T19:26:04.665Z,2.40
2023-05-10T19:28:34.087Z,1.93
2023-05-10T19:31:05.045Z,1.90
2023-05-10T19:33:38.435Z,2.07
2023-05-10T19:36:09.185Z,2.20
2023-05-10T19:38:38.300Z,2.27
2023-05-10T19:41:06.795Z,1.97
2023-05-10T19:43:36.406Z,2.10
2023-05-10T19:46:04.660Z,2.55
2023-05-10T19:48:33.123Z,2.30
2023-05-10T19:51:02.429Z,2.13
2023-05-10T19:53:34.030Z,2.27
2023-05-10T19:56:06.699Z,2.70
2023-05-10T19:58:35.294Z,2.23
2023-05-10T20:01:03.920Z,2.27
2023-05-10T20:03:33.618Z,2.20
2023-05-10T20:06:05.384Z,2.42
2023-05-10T20:08:34.862Z,2.47
2023-05-10T20:11:03.958Z,2.10
2023-05-10T20:13:32.034Z,2.87
2023-05-10T20:16:00.719Z,2.17
2023-05-10T20:18:28.907Z,2.73
2023-05-10T20:20:59.491Z,2.37
2023-05-10T20:23:29.680Z,2.50
2023-05-10T20:25:59.891Z,2.63
2023-05-10T20:28:28.420Z,2.70
2023-05-10T20:30:58.511Z,2.20
2023-05-10T20:33:26.959Z,2.42
2023-05-10T20:35:57.869Z,2.20
2023-05-10T20:38:26.001Z,2.30
2023-05-10T20:40:54.309Z,2.17
2023-05-10T20:43:23.718Z,2.37
2023-05-10T20:45:51.777Z,2.53
2023-05-10T20:48:20.021Z,2.30
2023-05-10T20:50:47.959Z,2.23
2023-05-10T20:53:15.897Z,2.47
2023-05-10T20:55:44.132Z,2.30
2023-05-10T20:58:12.090Z,2.30
2023-05-10T21:00:43.807Z,2.40
2023-05-10T21:03:13.563Z,2.53
2023-05-10T21:05:47.392Z,2.67
2023-05-10T21:08:15.552Z,2.40
2023-05-10T21:10:46.389Z,2.57
2023-05-10T21:13:14.399Z,2.60
2023-05-10T21:15:43.894Z,2.40
2023-05-10T21:18:11.822Z,2.80
2023-05-10T21:20:39.849Z,2.70
2023-05-10T21:23:07.896Z,3.00
2023-05-10T21:25:39.179Z,2.70
2023-05-10T21:28:07.201Z,3.00
2023-05-10T21:30:35.757Z,2.70
2023-05-10T21:33:07.914Z,2.93
2023-05-10T21:35:35.954Z,3.00
2023-05-10T21:38:04.010Z,2.97
2023-05-10T21:40:31.920Z,3.03
2023-05-10T21:42:59.938Z,2.83
2023-05-10T21:45:31.673Z,3.10
2023-05-10T21:47:59.985Z,2.43
2023-05-10T21:50:30.060Z,3.00
2023-05-10T21:52:58.243Z,3.33
2023-05-10T21:55:26.352Z,3.00
2023-05-10T21:57:55.796Z,3.10
2023-05-10T22:00:24.003Z,2.93
2023-05-10T22:02:52.000Z,3.37
2023-05-10T22:05:20.064Z,3.10
2023-05-10T22:07:49.624Z,3.20
2023-05-10T22:10:17.863Z,3.17
2023-05-10T22:12:46.188Z,3.10
2023-05-10T22:15:14.289Z,3.50
2023-05-10T22:17:42.373Z,3.10
2023-05-10T22:20:11.165Z,3.43
2023-05-10T22:22:39.262Z,3.20
2023-05-10T22:25:09.443Z,3.10
2023-05-10T22:27:37.783Z,3.45
2023-05-10T22:30:07.017Z,3.10
2023-05-10T22:32:35.204Z,3.33
2023-05-10T22:35:03.368Z,3.50
2023-05-10T22:37:31.568Z,3.57
2023-05-10T22:40:05.058Z,3.13
2023-05-10T22:42:35.075Z,3.10
2023-05-10T22:45:03.154Z,2.83
2023-05-10T22:47:31.219Z,3.23
2023-05-10T22:49:59.437Z,2.93
2023-05-10T22:52:27.370Z,3.20
2023-05-10T22:54:55.706Z,3.10
2023-05-10T22:57:23.723Z,3.37
2023-05-10T22:59:53.747Z,3.37
2023-05-10T23:02:24.501Z,2.60
2023-05-10T23:04:52.536Z,3.33
2023-05-10T23:07:22.215Z,3.10
2023-05-10T23:09:50.236Z,2.90
2023-05-10T23:12:18.267Z,3.50
2023-05-10T23:14:49.397Z,3.57
2023-05-10T23:17:19.019Z,3.40
2023-05-10T23:19:47.228Z,3.50
2023-05-10T23:22:17.557Z,3.27
2023-05-10T23:24:45.644Z,3.50
2023-05-10T23:27:14.583Z,3.30
2023-05-10T23:29:45.205Z,4.00
2023-05-10T23:32:13.325Z,3.50
2023-05-10T23:34:42.790Z,3.20
2023-05-10T23:37:13.441Z,3.77
2023-05-10T23:39:41.595Z,3.17
2023-05-10T23:42:09.692Z,3.40
2023-05-10T23:44:37.589Z,3.23
2023-05-10T23:47:06.208Z,3.37
2023-05-10T23:49:34.522Z,3.10
2023-05-10T23:52:04.019Z,3.33
2023-05-10T23:54:32.208Z,3.28
2023-05-10T23:57:00.204Z,3.60
2023-05-10T23:59:31.316Z,3.03
